LDPL/PUY METAR and TAF weather

Enter ICAO airport designator
Station Type Date Time Source
LDPL METAR 2021/01/17 17:30 UTC NOAA

LDPL 171730Z 08011KT 9999 FEW025 BKN035 06/00 Q1016


Station Type Date Time Source
LDPL Decoded METAR 2021/01/17 17:30 UTC NOAA

Pula Aerodrome, Croatia (LDPL) 45-54N 013-55E 63M
Jan 17, 2021 - 12:30 PM EST / 2021.01.17 1730 UTC
Wind: from the E (080 degrees) at 13 MPH (11 KT):0
Visibility: greater than 7 mile(s):0
Sky conditions: mostly cloudy
Temperature: 42 F (6 C)
Dew Point: 32 F (0 C)
Relative Humidity: 65%
Pressure (altimeter): 30.00 in. Hg (1016 hPa)
ob: LDPL 171730Z 08011KT 9999 FEW025 BKN035 06/00 Q1016
cycle: 17

Station Type Date Time Source
LDPL TAF 2021/01/17 18:27 UTC NOAA

TAF LDPL 171725Z 1718/1818 09007KT 9999 SCT035 TX07/1813Z TNM01/1805Z
BECMG 1718/1720 06012KT PROB30
TEMPO 1720/1803 06015G25KT
BECMG 1805/1807 34006KT
TEMPO 1810/1816 28010KT

Example: see airport list